Accueil
METAR-TAF:

METAR-TAF

Aéroports :

Aéroport de Lugano

Lugano, Suisse

latitude: 46-00N, longitude: 008-58E, altitude: 273 m

Observation

Le bulletin a été fait il y a 34 minutes, à 23:50 UTC
Vent 2 kt de direction variable
Température 23°C
Humidité 69%
Pression 1020 hPa
Visibilité 10 km ou plus
Nuages épars à une hauteur de 6000 ft
Ciel couvert à une hauteur de 8000 ft

METAR: LSZA 202350Z AUTO VRB02KT 9999 SCT060 OVC080 23/17 Q1020

Heure: 02:24 (00:24 UTC)

Prévision

Le bulletin a été fait il y a 9 heures et 59 minutes, à 14:25 UTC
Prévision valable du 20 à 15 UTC au 20 à 24 UTC
Vent 6 kt de sud
Visibilité 10 km ou plus
Quelques nuages à une hauteur de 7000 ft
Probabilité 40%
du 20 à 17 UTC au 20 à 24 UTC
Quelques nuages à une hauteur de 6000 ft, Cumulus congestus.

TAF: LSZA 201425Z 2015/2024 19006KT 9999 FEW070 PROB40 2017/2024 FEW060TCU

Observations et prévisions météorologiques de plus de 4000 aéroports (messages METAR et TAF).

Les stations disponibles sont représentées par des disques jaunes et rouges sur la carte.

Passer la souris dessus pour voir le nom de la station.

Cliquer dessus pour voir les observations et prévisions météorologiques.

Pour changer de carte: cliquez sur les boutons verts avec une croix noire pour zoomer, sur le bouton vert avec un tiret pour effectuer un zoom arrière, ou sur les flèches vertes pour les cartes adjacentes.


METAR-TAF: